sensor_id;sensor_type;location;lat;lon;timestamp;P1;durP1;ratioP1;P2;durP2;ratioP2
17510;SDS011;8873;48.818;9.422;2022-11-20T00:00:22;23.63;;;10.67;;
17510;SDS011;8873;48.818;9.422;2022-11-20T00:02:50;28.35;;;11.63;;
17510;SDS011;8873;48.818;9.422;2022-11-20T00:05:17;17.83;;;9.17;;
17510;SDS011;8873;48.818;9.422;2022-11-20T00:07:45;23.47;;;10.13;;
17510;SDS011;8873;48.818;9.422;2022-11-20T00:10:13;25.38;;;10.27;;
17510;SDS011;8873;48.818;9.422;2022-11-20T00:12:42;20.67;;;9.85;;
17510;SDS011;8873;48.818;9.422;2022-11-20T00:15:09;22.45;;;9.60;;
17510;SDS011;8873;48.818;9.422;2022-11-20T00:17:37;23.95;;;9.75;;
17510;SDS011;8873;48.818;9.422;2022-11-20T00:20:05;22.90;;;9.82;;
17510;SDS011;8873;48.818;9.422;2022-11-20T00:22:33;25.20;;;10.57;;
17510;SDS011;8873;48.818;9.422;2022-11-20T00:25:00;24.03;;;9.93;;
17510;SDS011;8873;48.818;9.422;2022-11-20T00:27:28;21.23;;;10.35;;
17510;SDS011;8873;48.818;9.422;2022-11-20T00:29:57;20.77;;;9.65;;
17510;SDS011;8873;48.818;9.422;2022-11-20T00:32:24;27.15;;;11.85;;
17510;SDS011;8873;48.818;9.422;2022-11-20T00:34:52;25.55;;;10.68;;
17510;SDS011;8873;48.818;9.422;2022-11-20T00:37:19;48.93;;;19.93;;
17510;SDS011;8873;48.818;9.422;2022-11-20T00:39:47;33.47;;;14.13;;
17510;SDS011;8873;48.818;9.422;2022-11-20T00:42:15;44.65;;;19.67;;
17510;SDS011;8873;48.818;9.422;2022-11-20T00:44:42;33.13;;;14.48;;
17510;SDS011;8873;48.818;9.422;2022-11-20T00:47:11;29.92;;;12.38;;
17510;SDS011;8873;48.818;9.422;2022-11-20T00:49:39;26.67;;;11.02;;
17510;SDS011;8873;48.818;9.422;2022-11-20T00:52:06;27.45;;;13.07;;
17510;SDS011;8873;48.818;9.422;2022-11-20T00:54:34;26.17;;;12.00;;
17510;SDS011;8873;48.818;9.422;2022-11-20T00:57:01;24.10;;;11.23;;
17510;SDS011;8873;48.818;9.422;2022-11-20T00:59:29;48.22;;;24.00;;
17510;SDS011;8873;48.818;9.422;2022-11-20T01:01:57;36.23;;;15.90;;
17510;SDS011;8873;48.818;9.422;2022-11-20T01:04:25;24.97;;;12.23;;
17510;SDS011;8873;48.818;9.422;2022-11-20T01:06:53;35.15;;;16.00;;
17510;SDS011;8873;48.818;9.422;2022-11-20T01:09:20;42.57;;;19.77;;
17510;SDS011;8873;48.818;9.422;2022-11-20T01:11:48;56.88;;;24.40;;
17510;SDS011;8873;48.818;9.422;2022-11-20T01:14:17;38.58;;;17.20;;
17510;SDS011;8873;48.818;9.422;2022-11-20T01:16:45;32.92;;;14.70;;
17510;SDS011;8873;48.818;9.422;2022-11-20T01:19:15;49.25;;;23.17;;
17510;SDS011;8873;48.818;9.422;2022-11-20T01:21:45;36.17;;;14.93;;
17510;SDS011;8873;48.818;9.422;2022-11-20T01:24:13;26.77;;;11.93;;
17510;SDS011;8873;48.818;9.422;2022-11-20T01:26:42;30.20;;;12.13;;
17510;SDS011;8873;48.818;9.422;2022-11-20T01:29:12;32.60;;;13.75;;
17510;SDS011;8873;48.818;9.422;2022-11-20T01:31:40;28.27;;;12.90;;
17510;SDS011;8873;48.818;9.422;2022-11-20T01:34:09;26.65;;;12.55;;
17510;SDS011;8873;48.818;9.422;2022-11-20T01:36:37;30.52;;;13.20;;
17510;SDS011;8873;48.818;9.422;2022-11-20T01:39:07;33.58;;;12.30;;
17510;SDS011;8873;48.818;9.422;2022-11-20T01:41:35;24.80;;;11.73;;
17510;SDS011;8873;48.818;9.422;2022-11-20T01:44:21;28.63;;;11.60;;
17510;SDS011;8873;48.818;9.422;2022-11-20T01:46:51;26.88;;;10.88;;
17510;SDS011;8873;48.818;9.422;2022-11-20T01:49:21;27.45;;;12.10;;
17510;SDS011;8873;48.818;9.422;2022-11-20T01:51:52;27.77;;;11.55;;
17510;SDS011;8873;48.818;9.422;2022-11-20T01:54:26;27.48;;;11.95;;
17510;SDS011;8873;48.818;9.422;2022-11-20T01:56:53;27.95;;;11.40;;
17510;SDS011;8873;48.818;9.422;2022-11-20T01:59:23;23.55;;;11.27;;
17510;SDS011;8873;48.818;9.422;2022-11-20T02:01:52;25.70;;;11.50;;
17510;SDS011;8873;48.818;9.422;2022-11-20T02:04:19;24.80;;;11.20;;
17510;SDS011;8873;48.818;9.422;2022-11-20T02:06:48;26.65;;;10.88;;
17510;SDS011;8873;48.818;9.422;2022-11-20T02:09:27;28.30;;;11.60;;
17510;SDS011;8873;48.818;9.422;2022-11-20T02:11:55;23.85;;;11.10;;
17510;SDS011;8873;48.818;9.422;2022-11-20T02:14:22;28.17;;;10.90;;
17510;SDS011;8873;48.818;9.422;2022-11-20T02:16:49;23.90;;;10.93;;
17510;SDS011;8873;48.818;9.422;2022-11-20T02:19:20;27.53;;;11.37;;
17510;SDS011;8873;48.818;9.422;2022-11-20T02:21:51;22.65;;;10.18;;
17510;SDS011;8873;48.818;9.422;2022-11-20T02:24:24;29.77;;;11.07;;
17510;SDS011;8873;48.818;9.422;2022-11-20T02:26:52;28.35;;;11.32;;
17510;SDS011;8873;48.818;9.422;2022-11-20T02:29:23;24.50;;;11.03;;
17510;SDS011;8873;48.818;9.422;2022-11-20T02:31:50;26.35;;;11.02;;
17510;SDS011;8873;48.818;9.422;2022-11-20T02:34:18;19.87;;;9.60;;
17510;SDS011;8873;48.818;9.422;2022-11-20T02:36:46;18.88;;;8.90;;
17510;SDS011;8873;48.818;9.422;2022-11-20T02:39:13;16.25;;;8.25;;
17510;SDS011;8873;48.818;9.422;2022-11-20T02:41:44;12.60;;;7.33;;
17510;SDS011;8873;48.818;9.422;2022-11-20T02:44:12;14.70;;;6.90;;
17510;SDS011;8873;48.818;9.422;2022-11-20T02:46:39;14.65;;;7.47;;
17510;SDS011;8873;48.818;9.422;2022-11-20T02:49:07;14.95;;;7.50;;
17510;SDS011;8873;48.818;9.422;2022-11-20T02:51:34;13.30;;;6.70;;
17510;SDS011;8873;48.818;9.422;2022-11-20T02:54:02;15.03;;;7.37;;
17510;SDS011;8873;48.818;9.422;2022-11-20T02:56:30;13.60;;;6.37;;
17510;SDS011;8873;48.818;9.422;2022-11-20T02:58:59;15.52;;;7.95;;
17510;SDS011;8873;48.818;9.422;2022-11-20T03:01:26;14.02;;;8.27;;
17510;SDS011;8873;48.818;9.422;2022-11-20T03:03:54;19.10;;;8.60;;
17510;SDS011;8873;48.818;9.422;2022-11-20T03:06:22;18.70;;;8.30;;
17510;SDS011;8873;48.818;9.422;2022-11-20T03:08:49;14.77;;;8.10;;
17510;SDS011;8873;48.818;9.422;2022-11-20T03:11:17;17.50;;;8.47;;
17510;SDS011;8873;48.818;9.422;2022-11-20T03:13:45;18.20;;;7.95;;
17510;SDS011;8873;48.818;9.422;2022-11-20T03:16:14;16.00;;;7.75;;
17510;SDS011;8873;48.818;9.422;2022-11-20T03:18:42;13.30;;;7.73;;
17510;SDS011;8873;48.818;9.422;2022-11-20T03:21:09;10.40;;;6.30;;
17510;SDS011;8873;48.818;9.422;2022-11-20T03:23:37;11.67;;;6.00;;
17510;SDS011;8873;48.818;9.422;2022-11-20T03:26:09;11.40;;;5.80;;
17510;SDS011;8873;48.818;9.422;2022-11-20T03:28:36;14.53;;;5.83;;
17510;SDS011;8873;48.818;9.422;2022-11-20T03:31:05;11.32;;;5.70;;
17510;SDS011;8873;48.818;9.422;2022-11-20T03:33:33;11.13;;;5.53;;
17510;SDS011;8873;48.818;9.422;2022-11-20T03:36:02;12.00;;;5.32;;
17510;SDS011;8873;48.818;9.422;2022-11-20T03:38:30;11.23;;;6.33;;
17510;SDS011;8873;48.818;9.422;2022-11-20T03:40:58;13.02;;;5.80;;
17510;SDS011;8873;48.818;9.422;2022-11-20T03:43:26;14.98;;;5.97;;
17510;SDS011;8873;48.818;9.422;2022-11-20T03:45:54;9.10;;;5.47;;
17510;SDS011;8873;48.818;9.422;2022-11-20T03:48:21;13.63;;;6.25;;
17510;SDS011;8873;48.818;9.422;2022-11-20T03:50:53;10.02;;;5.82;;
17510;SDS011;8873;48.818;9.422;2022-11-20T03:53:21;9.82;;;6.13;;
17510;SDS011;8873;48.818;9.422;2022-11-20T03:55:50;10.80;;;5.78;;
17510;SDS011;8873;48.818;9.422;2022-11-20T03:58:18;10.57;;;5.68;;
17510;SDS011;8873;48.818;9.422;2022-11-20T04:00:45;8.23;;;5.55;;
17510;SDS011;8873;48.818;9.422;2022-11-20T04:03:13;10.63;;;6.22;;
17510;SDS011;8873;48.818;9.422;2022-11-20T04:05:40;14.82;;;5.60;;
17510;SDS011;8873;48.818;9.422;2022-11-20T04:08:09;12.50;;;5.97;;
17510;SDS011;8873;48.818;9.422;2022-11-20T04:10:36;8.55;;;4.95;;
17510;SDS011;8873;48.818;9.422;2022-11-20T04:13:04;8.73;;;5.80;;
17510;SDS011;8873;48.818;9.422;2022-11-20T04:15:31;11.60;;;5.70;;
17510;SDS011;8873;48.818;9.422;2022-11-20T04:18:03;11.57;;;5.63;;
17510;SDS011;8873;48.818;9.422;2022-11-20T04:20:31;14.80;;;7.65;;
17510;SDS011;8873;48.818;9.422;2022-11-20T04:23:00;8.75;;;5.75;;
17510;SDS011;8873;48.818;9.422;2022-11-20T04:25:29;8.60;;;5.50;;
17510;SDS011;8873;48.818;9.422;2022-11-20T04:27:57;7.03;;;4.55;;
17510;SDS011;8873;48.818;9.422;2022-11-20T04:30:24;6.87;;;4.87;;
17510;SDS011;8873;48.818;9.422;2022-11-20T04:32:52;9.82;;;4.97;;
17510;SDS011;8873;48.818;9.422;2022-11-20T04:35:19;6.05;;;4.78;;
17510;SDS011;8873;48.818;9.422;2022-11-20T04:37:47;8.82;;;4.90;;
17510;SDS011;8873;48.818;9.422;2022-11-20T04:40:14;6.70;;;4.73;;
17510;SDS011;8873;48.818;9.422;2022-11-20T04:42:43;8.75;;;4.88;;
17510;SDS011;8873;48.818;9.422;2022-11-20T04:45:11;5.40;;;3.80;;
17510;SDS011;8873;48.818;9.422;2022-11-20T04:47:38;5.03;;;3.80;;
17510;SDS011;8873;48.818;9.422;2022-11-20T04:50:06;5.55;;;3.67;;
17510;SDS011;8873;48.818;9.422;2022-11-20T04:52:33;8.45;;;3.80;;
17510;SDS011;8873;48.818;9.422;2022-11-20T04:55:01;7.00;;;4.30;;
17510;SDS011;8873;48.818;9.422;2022-11-20T04:57:28;5.05;;;4.07;;
17510;SDS011;8873;48.818;9.422;2022-11-20T04:59:57;6.20;;;4.30;;
17510;SDS011;8873;48.818;9.422;2022-11-20T05:02:25;9.85;;;4.40;;
17510;SDS011;8873;48.818;9.422;2022-11-20T05:04:52;5.95;;;3.58;;
17510;SDS011;8873;48.818;9.422;2022-11-20T05:07:20;6.18;;;3.70;;
17510;SDS011;8873;48.818;9.422;2022-11-20T05:09:47;4.97;;;3.63;;
17510;SDS011;8873;48.818;9.422;2022-11-20T05:12:15;6.57;;;4.03;;
17510;SDS011;8873;48.818;9.422;2022-11-20T05:14:42;5.63;;;3.75;;
17510;SDS011;8873;48.818;9.422;2022-11-20T05:17:11;6.20;;;4.00;;
17510;SDS011;8873;48.818;9.422;2022-11-20T05:19:39;5.78;;;4.00;;
17510;SDS011;8873;48.818;9.422;2022-11-20T05:22:07;4.50;;;3.70;;
17510;SDS011;8873;48.818;9.422;2022-11-20T05:24:34;5.22;;;4.18;;
17510;SDS011;8873;48.818;9.422;2022-11-20T05:27:01;6.10;;;4.00;;
17510;SDS011;8873;48.818;9.422;2022-11-20T05:29:29;6.70;;;3.90;;
17510;SDS011;8873;48.818;9.422;2022-11-20T05:31:57;8.98;;;3.88;;
17510;SDS011;8873;48.818;9.422;2022-11-20T05:34:25;5.60;;;3.80;;
17510;SDS011;8873;48.818;9.422;2022-11-20T05:36:53;8.70;;;3.80;;
17510;SDS011;8873;48.818;9.422;2022-11-20T05:39:20;6.38;;;3.63;;
17510;SDS011;8873;48.818;9.422;2022-11-20T05:41:48;4.53;;;3.58;;
17510;SDS011;8873;48.818;9.422;2022-11-20T05:44:36;5.63;;;3.85;;
17510;SDS011;8873;48.818;9.422;2022-11-20T05:47:04;5.72;;;4.10;;
17510;SDS011;8873;48.818;9.422;2022-11-20T05:49:33;4.90;;;3.45;;
17510;SDS011;8873;48.818;9.422;2022-11-20T05:52:00;7.80;;;4.10;;
17510;SDS011;8873;48.818;9.422;2022-11-20T05:54:28;8.27;;;3.63;;
17510;SDS011;8873;48.818;9.422;2022-11-20T05:56:55;5.80;;;3.83;;
17510;SDS011;8873;48.818;9.422;2022-11-20T05:59:23;4.13;;;3.35;;
17510;SDS011;8873;48.818;9.422;2022-11-20T06:01:50;4.13;;;3.35;;
17510;SDS011;8873;48.818;9.422;2022-11-20T06:04:18;5.50;;;3.70;;
17510;SDS011;8873;48.818;9.422;2022-11-20T06:06:47;5.88;;;3.53;;
17510;SDS011;8873;48.818;9.422;2022-11-20T06:09:14;6.30;;;3.40;;
17510;SDS011;8873;48.818;9.422;2022-11-20T06:11:42;6.57;;;3.40;;
17510;SDS011;8873;48.818;9.422;2022-11-20T06:14:09;5.72;;;3.35;;
17510;SDS011;8873;48.818;9.422;2022-11-20T06:16:37;6.38;;;3.30;;
17510;SDS011;8873;48.818;9.422;2022-11-20T06:19:04;5.00;;;3.72;;
17510;SDS011;8873;48.818;9.422;2022-11-20T06:21:31;6.80;;;3.30;;
17510;SDS011;8873;48.818;9.422;2022-11-20T06:24:00;5.47;;;3.50;;
17510;SDS011;8873;48.818;9.422;2022-11-20T06:26:28;6.97;;;4.22;;
17510;SDS011;8873;48.818;9.422;2022-11-20T06:28:55;4.75;;;3.67;;
17510;SDS011;8873;48.818;9.422;2022-11-20T06:31:23;6.70;;;3.88;;
17510;SDS011;8873;48.818;9.422;2022-11-20T06:33:51;11.15;;;4.03;;
17510;SDS011;8873;48.818;9.422;2022-11-20T06:36:20;4.10;;;3.70;;
17510;SDS011;8873;48.818;9.422;2022-11-20T06:38:48;3.63;;;3.33;;
17510;SDS011;8873;48.818;9.422;2022-11-20T06:41:18;6.07;;;3.67;;
17510;SDS011;8873;48.818;9.422;2022-11-20T06:43:46;5.50;;;3.05;;
17510;SDS011;8873;48.818;9.422;2022-11-20T06:46:15;6.00;;;2.90;;
17510;SDS011;8873;48.818;9.422;2022-11-20T06:48:46;3.10;;;2.47;;
17510;SDS011;8873;48.818;9.422;2022-11-20T06:51:15;5.07;;;3.00;;
17510;SDS011;8873;48.818;9.422;2022-11-20T06:53:42;3.72;;;2.58;;
17510;SDS011;8873;48.818;9.422;2022-11-20T06:56:10;3.15;;;2.50;;
17510;SDS011;8873;48.818;9.422;2022-11-20T06:58:39;5.20;;;3.05;;
17510;SDS011;8873;48.818;9.422;2022-11-20T07:01:08;2.83;;;2.58;;
17510;SDS011;8873;48.818;9.422;2022-11-20T07:03:36;3.10;;;2.80;;
17510;SDS011;8873;48.818;9.422;2022-11-20T07:06:04;4.38;;;2.70;;
17510;SDS011;8873;48.818;9.422;2022-11-20T07:08:32;5.45;;;3.05;;
17510;SDS011;8873;48.818;9.422;2022-11-20T07:10:59;5.68;;;2.97;;
17510;SDS011;8873;48.818;9.422;2022-11-20T07:13:27;3.25;;;2.97;;
17510;SDS011;8873;48.818;9.422;2022-11-20T07:15:58;7.93;;;3.78;;
17510;SDS011;8873;48.818;9.422;2022-11-20T07:18:26;5.53;;;3.33;;
17510;SDS011;8873;48.818;9.422;2022-11-20T07:20:53;5.05;;;3.35;;
17510;SDS011;8873;48.818;9.422;2022-11-20T07:23:21;5.13;;;2.88;;
17510;SDS011;8873;48.818;9.422;2022-11-20T07:25:48;3.50;;;2.95;;
17510;SDS011;8873;48.818;9.422;2022-11-20T07:28:16;3.30;;;2.80;;
17510;SDS011;8873;48.818;9.422;2022-11-20T07:30:48;2.83;;;2.60;;
17510;SDS011;8873;48.818;9.422;2022-11-20T07:33:18;3.67;;;3.08;;
17510;SDS011;8873;48.818;9.422;2022-11-20T07:35:45;3.45;;;2.50;;
17510;SDS011;8873;48.818;9.422;2022-11-20T07:38:13;3.30;;;2.83;;
17510;SDS011;8873;48.818;9.422;2022-11-20T07:40:40;2.78;;;2.58;;
17510;SDS011;8873;48.818;9.422;2022-11-20T07:43:08;2.95;;;2.75;;
17510;SDS011;8873;48.818;9.422;2022-11-20T07:45:35;2.92;;;2.70;;
17510;SDS011;8873;48.818;9.422;2022-11-20T07:48:03;3.25;;;2.97;;
17510;SDS011;8873;48.818;9.422;2022-11-20T07:50:32;3.25;;;2.67;;
17510;SDS011;8873;48.818;9.422;2022-11-20T07:53:00;3.60;;;2.37;;
17510;SDS011;8873;48.818;9.422;2022-11-20T07:55:28;3.92;;;2.85;;
17510;SDS011;8873;48.818;9.422;2022-11-20T07:57:56;2.90;;;2.70;;
17510;SDS011;8873;48.818;9.422;2022-11-20T08:00:24;2.55;;;2.35;;
17510;SDS011;8873;48.818;9.422;2022-11-20T08:02:52;3.85;;;2.58;;
17510;SDS011;8873;48.818;9.422;2022-11-20T08:05:20;6.72;;;2.75;;
17510;SDS011;8873;48.818;9.422;2022-11-20T08:07:48;4.28;;;2.85;;
17510;SDS011;8873;48.818;9.422;2022-11-20T08:10:16;2.45;;;2.30;;
17510;SDS011;8873;48.818;9.422;2022-11-20T08:12:44;4.40;;;3.47;;
17510;SDS011;8873;48.818;9.422;2022-11-20T08:15:29;4.45;;;3.20;;
17510;SDS011;8873;48.818;9.422;2022-11-20T08:18:01;5.30;;;2.90;;
17510;SDS011;8873;48.818;9.422;2022-11-20T08:20:48;4.28;;;3.13;;
17510;SDS011;8873;48.818;9.422;2022-11-20T08:23:17;3.90;;;3.20;;
17510;SDS011;8873;48.818;9.422;2022-11-20T08:25:48;3.47;;;2.80;;
17510;SDS011;8873;48.818;9.422;2022-11-20T08:28:16;3.75;;;3.35;;
17510;SDS011;8873;48.818;9.422;2022-11-20T08:30:47;7.75;;;3.28;;
17510;SDS011;8873;48.818;9.422;2022-11-20T08:33:14;3.40;;;3.08;;
17510;SDS011;8873;48.818;9.422;2022-11-20T08:35:43;7.18;;;4.45;;
17510;SDS011;8873;48.818;9.422;2022-11-20T08:38:11;2.60;;;2.40;;
17510;SDS011;8873;48.818;9.422;2022-11-20T08:40:39;3.92;;;2.67;;
17510;SDS011;8873;48.818;9.422;2022-11-20T08:43:07;5.65;;;3.30;;
17510;SDS011;8873;48.818;9.422;2022-11-20T08:45:34;2.65;;;2.45;;
17510;SDS011;8873;48.818;9.422;2022-11-20T08:48:02;2.97;;;2.42;;
17510;SDS011;8873;48.818;9.422;2022-11-20T08:50:30;2.55;;;2.35;;
17510;SDS011;8873;48.818;9.422;2022-11-20T08:53:01;2.33;;;2.10;;
17510;SDS011;8873;48.818;9.422;2022-11-20T08:55:29;2.75;;;2.38;;
17510;SDS011;8873;48.818;9.422;2022-11-20T08:57:58;8.93;;;4.53;;
17510;SDS011;8873;48.818;9.422;2022-11-20T09:00:30;6.60;;;4.05;;
17510;SDS011;8873;48.818;9.422;2022-11-20T09:02:57;16.63;;;7.72;;
17510;SDS011;8873;48.818;9.422;2022-11-20T09:05:27;12.88;;;4.78;;
17510;SDS011;8873;48.818;9.422;2022-11-20T09:07:55;4.65;;;2.80;;
17510;SDS011;8873;48.818;9.422;2022-11-20T09:10:23;18.45;;;8.32;;
17510;SDS011;8873;48.818;9.422;2022-11-20T09:12:50;3.40;;;2.60;;
17510;SDS011;8873;48.818;9.422;2022-11-20T09:15:20;2.25;;;2.15;;
17510;SDS011;8873;48.818;9.422;2022-11-20T09:17:50;3.08;;;2.85;;
17510;SDS011;8873;48.818;9.422;2022-11-20T09:20:17;3.33;;;2.92;;
17510;SDS011;8873;48.818;9.422;2022-11-20T09:22:45;3.38;;;3.08;;
17510;SDS011;8873;48.818;9.422;2022-11-20T09:25:13;3.17;;;2.85;;
17510;SDS011;8873;48.818;9.422;2022-11-20T09:27:46;4.88;;;3.15;;
17510;SDS011;8873;48.818;9.422;2022-11-20T09:30:14;2.60;;;2.40;;
17510;SDS011;8873;48.818;9.422;2022-11-20T09:32:44;2.35;;;2.13;;
17510;SDS011;8873;48.818;9.422;2022-11-20T09:35:12;2.72;;;2.53;;
17510;SDS011;8873;48.818;9.422;2022-11-20T09:37:40;3.17;;;2.53;;
17510;SDS011;8873;48.818;9.422;2022-11-20T09:40:09;3.63;;;3.30;;
17510;SDS011;8873;48.818;9.422;2022-11-20T09:42:45;12.60;;;7.65;;
17510;SDS011;8873;48.818;9.422;2022-11-20T09:45:21;7.78;;;4.22;;
17510;SDS011;8873;48.818;9.422;2022-11-20T09:47:58;3.40;;;3.08;;
17510;SDS011;8873;48.818;9.422;2022-11-20T09:50:30;5.82;;;4.97;;
17510;SDS011;8873;48.818;9.422;2022-11-20T09:53:04;8.27;;;5.30;;
17510;SDS011;8873;48.818;9.422;2022-11-20T09:55:34;11.32;;;4.85;;
17510;SDS011;8873;48.818;9.422;2022-11-20T09:58:02;14.50;;;6.13;;
17510;SDS011;8873;48.818;9.422;2022-11-20T10:00:32;19.27;;;8.50;;
17510;SDS011;8873;48.818;9.422;2022-11-20T10:03:03;12.55;;;4.28;;
17510;SDS011;8873;48.818;9.422;2022-11-20T10:05:34;4.80;;;2.97;;
17510;SDS011;8873;48.818;9.422;2022-11-20T10:08:15;4.43;;;2.88;;
17510;SDS011;8873;48.818;9.422;2022-11-20T10:10:46;8.82;;;3.90;;
17510;SDS011;8873;48.818;9.422;2022-11-20T10:13:25;3.60;;;2.30;;
17510;SDS011;8873;48.818;9.422;2022-11-20T10:15:59;4.28;;;3.72;;
17510;SDS011;8873;48.818;9.422;2022-11-20T10:18:37;4.70;;;2.65;;
17510;SDS011;8873;48.818;9.422;2022-11-20T10:21:08;4.32;;;2.45;;
17510;SDS011;8873;48.818;9.422;2022-11-20T10:23:53;2.45;;;2.25;;
17510;SDS011;8873;48.818;9.422;2022-11-20T10:26:29;3.95;;;2.90;;
17510;SDS011;8873;48.818;9.422;2022-11-20T10:29:06;2.45;;;1.75;;
17510;SDS011;8873;48.818;9.422;2022-11-20T10:31:36;2.13;;;1.77;;
17510;SDS011;8873;48.818;9.422;2022-11-20T10:34:07;2.38;;;2.22;;
17510;SDS011;8873;48.818;9.422;2022-11-20T10:36:49;3.63;;;2.47;;
17510;SDS011;8873;48.818;9.422;2022-11-20T10:39:21;2.03;;;1.90;;
17510;SDS011;8873;48.818;9.422;2022-11-20T10:41:50;3.22;;;2.70;;
17510;SDS011;8873;48.818;9.422;2022-11-20T10:44:20;2.78;;;2.38;;
17510;SDS011;8873;48.818;9.422;2022-11-20T10:47:11;4.75;;;2.65;;
17510;SDS011;8873;48.818;9.422;2022-11-20T10:49:42;4.60;;;2.60;;
17510;SDS011;8873;48.818;9.422;2022-11-20T10:52:11;3.92;;;2.20;;
17510;SDS011;8873;48.818;9.422;2022-11-20T10:54:42;3.72;;;1.90;;
17510;SDS011;8873;48.818;9.422;2022-11-20T10:57:15;2.60;;;2.40;;
17510;SDS011;8873;48.818;9.422;2022-11-20T10:59:48;2.30;;;2.10;;
17510;SDS011;8873;48.818;9.422;2022-11-20T11:02:18;2.70;;;1.70;;
17510;SDS011;8873;48.818;9.422;2022-11-20T11:04:48;1.90;;;1.80;;
17510;SDS011;8873;48.818;9.422;2022-11-20T11:07:18;3.88;;;2.47;;
17510;SDS011;8873;48.818;9.422;2022-11-20T11:09:48;2.58;;;1.95;;
17510;SDS011;8873;48.818;9.422;2022-11-20T11:12:16;2.17;;;1.98;;
17510;SDS011;8873;48.818;9.422;2022-11-20T11:14:44;2.17;;;2.05;;
17510;SDS011;8873;48.818;9.422;2022-11-20T11:17:26;2.45;;;2.25;;
17510;SDS011;8873;48.818;9.422;2022-11-20T11:20:14;3.88;;;2.60;;
17510;SDS011;8873;48.818;9.422;2022-11-20T11:22:43;4.15;;;3.45;;
17510;SDS011;8873;48.818;9.422;2022-11-20T11:25:18;4.20;;;2.90;;
17510;SDS011;8873;48.818;9.422;2022-11-20T11:27:46;5.82;;;2.80;;
17510;SDS011;8873;48.818;9.422;2022-11-20T11:30:15;4.40;;;3.03;;
17510;SDS011;8873;48.818;9.422;2022-11-20T11:32:43;4.40;;;3.42;;
17510;SDS011;8873;48.818;9.422;2022-11-20T11:38:19;6.60;;;4.03;;
17510;SDS011;8873;48.818;9.422;2022-11-20T11:40:48;3.13;;;2.80;;
17510;SDS011;8873;48.818;9.422;2022-11-20T11:43:19;3.30;;;3.00;;
17510;SDS011;8873;48.818;9.422;2022-11-20T11:46:06;5.53;;;3.00;;
17510;SDS011;8873;48.818;9.422;2022-11-20T11:48:36;9.25;;;3.88;;
17510;SDS011;8873;48.818;9.422;2022-11-20T11:51:31;4.47;;;3.53;;
17510;SDS011;8873;48.818;9.422;2022-11-20T11:53:53;85.80;;;25.45;;
17510;SDS011;8873;48.818;9.422;2022-11-20T11:56:21;17.95;;;6.45;;
17510;SDS011;8873;48.818;9.422;2022-11-20T11:58:50;7.47;;;6.03;;
17510;SDS011;8873;48.818;9.422;2022-11-20T12:01:33;2.45;;;1.65;;
17510;SDS011;8873;48.818;9.422;2022-11-20T12:04:42;2.78;;;2.58;;
17510;SDS011;8873;48.818;9.422;2022-11-20T12:07:11;2.20;;;2.10;;
17510;SDS011;8873;48.818;9.422;2022-11-20T12:10:13;2.60;;;2.13;;
17510;SDS011;8873;48.818;9.422;2022-11-20T12:12:42;1.80;;;1.70;;
17510;SDS011;8873;48.818;9.422;2022-11-20T12:15:11;1.90;;;1.80;;
17510;SDS011;8873;48.818;9.422;2022-11-20T12:17:40;2.20;;;2.10;;
17510;SDS011;8873;48.818;9.422;2022-11-20T12:20:18;2.40;;;1.83;;
17510;SDS011;8873;48.818;9.422;2022-11-20T12:22:48;2.47;;;2.28;;
17510;SDS011;8873;48.818;9.422;2022-11-20T12:25:29;2.58;;;2.33;;
17510;SDS011;8873;48.818;9.422;2022-11-20T12:28:03;1.95;;;1.83;;
17510;SDS011;8873;48.818;9.422;2022-11-20T12:30:36;2.70;;;2.42;;
17510;SDS011;8873;48.818;9.422;2022-11-20T12:33:13;1.60;;;1.50;;
17510;SDS011;8873;48.818;9.422;2022-11-20T12:35:47;1.77;;;1.67;;
17510;SDS011;8873;48.818;9.422;2022-11-20T12:38:27;2.00;;;1.77;;
17510;SDS011;8873;48.818;9.422;2022-11-20T12:41:02;2.60;;;2.30;;
17510;SDS011;8873;48.818;9.422;2022-11-20T12:43:35;2.42;;;1.83;;
17510;SDS011;8873;48.818;9.422;2022-11-20T12:46:26;3.65;;;2.40;;
17510;SDS011;8873;48.818;9.422;2022-11-20T12:51:54;3.83;;;2.30;;
17510;SDS011;8873;48.818;9.422;2022-11-20T12:57:12;4.78;;;1.77;;
17510;SDS011;8873;48.818;9.422;2022-11-20T12:59:48;5.13;;;1.75;;
17510;SDS011;8873;48.818;9.422;2022-11-20T13:02:25;2.10;;;1.60;;
17510;SDS011;8873;48.818;9.422;2022-11-20T13:05:27;2.70;;;1.42;;
17510;SDS011;8873;48.818;9.422;2022-11-20T13:07:56;1.83;;;1.70;;
17510;SDS011;8873;48.818;9.422;2022-11-20T13:10:26;1.42;;;1.42;;
17510;SDS011;8873;48.818;9.422;2022-11-20T13:12:59;1.92;;;1.58;;
17510;SDS011;8873;48.818;9.422;2022-11-20T13:15:38;2.58;;;1.48;;
17510;SDS011;8873;48.818;9.422;2022-11-20T13:18:08;1.55;;;1.52;;
17510;SDS011;8873;48.818;9.422;2022-11-20T13:20:41;3.58;;;1.63;;
17510;SDS011;8873;48.818;9.422;2022-11-20T13:23:09;2.28;;;1.20;;
17510;SDS011;8873;48.818;9.422;2022-11-20T13:25:39;1.67;;;1.55;;
17510;SDS011;8873;48.818;9.422;2022-11-20T13:30:53;1.45;;;1.35;;
17510;SDS011;8873;48.818;9.422;2022-11-20T13:33:22;1.95;;;1.30;;
17510;SDS011;8873;48.818;9.422;2022-11-20T13:35:54;3.38;;;1.98;;
17510;SDS011;8873;48.818;9.422;2022-11-20T13:38:22;4.68;;;2.13;;
17510;SDS011;8873;48.818;9.422;2022-11-20T13:40:53;3.47;;;1.70;;
17510;SDS011;8873;48.818;9.422;2022-11-20T13:43:22;3.88;;;1.70;;
17510;SDS011;8873;48.818;9.422;2022-11-20T13:46:01;3.35;;;2.10;;
17510;SDS011;8873;48.818;9.422;2022-11-20T13:48:30;6.63;;;3.00;;
17510;SDS011;8873;48.818;9.422;2022-11-20T13:51:04;4.03;;;2.40;;
17510;SDS011;8873;48.818;9.422;2022-11-20T13:53:38;4.32;;;2.45;;
17510;SDS011;8873;48.818;9.422;2022-11-20T13:56:10;4.90;;;3.15;;
17510;SDS011;8873;48.818;9.422;2022-11-20T13:58:44;5.25;;;3.00;;
17510;SDS011;8873;48.818;9.422;2022-11-20T14:01:16;3.05;;;2.00;;
17510;SDS011;8873;48.818;9.422;2022-11-20T14:03:44;3.80;;;2.22;;
17510;SDS011;8873;48.818;9.422;2022-11-20T14:06:32;5.93;;;2.85;;
17510;SDS011;8873;48.818;9.422;2022-11-20T14:09:01;3.78;;;2.42;;
17510;SDS011;8873;48.818;9.422;2022-11-20T14:11:29;3.67;;;2.60;;
17510;SDS011;8873;48.818;9.422;2022-11-20T14:13:59;3.42;;;2.58;;
17510;SDS011;8873;48.818;9.422;2022-11-20T14:16:28;3.97;;;2.75;;
17510;SDS011;8873;48.818;9.422;2022-11-20T14:18:56;4.05;;;2.08;;
17510;SDS011;8873;48.818;9.422;2022-11-20T14:21:25;4.65;;;2.97;;
17510;SDS011;8873;48.818;9.422;2022-11-20T14:23:54;10.70;;;4.65;;
17510;SDS011;8873;48.818;9.422;2022-11-20T14:26:29;5.70;;;3.08;;
17510;SDS011;8873;48.818;9.422;2022-11-20T14:28:58;14.85;;;6.10;;
17510;SDS011;8873;48.818;9.422;2022-11-20T14:31:25;4.63;;;3.72;;
17510;SDS011;8873;48.818;9.422;2022-11-20T14:33:55;2.72;;;2.42;;
17510;SDS011;8873;48.818;9.422;2022-11-20T14:36:27;2.60;;;2.17;;
17510;SDS011;8873;48.818;9.422;2022-11-20T14:38:55;4.13;;;3.45;;
17510;SDS011;8873;48.818;9.422;2022-11-20T14:41:23;3.53;;;2.08;;
17510;SDS011;8873;48.818;9.422;2022-11-20T14:43:52;3.42;;;2.20;;
17510;SDS011;8873;48.818;9.422;2022-11-20T14:46:21;5.35;;;3.60;;
17510;SDS011;8873;48.818;9.422;2022-11-20T14:48:50;3.20;;;2.15;;
17510;SDS011;8873;48.818;9.422;2022-11-20T14:51:29;2.28;;;2.00;;
17510;SDS011;8873;48.818;9.422;2022-11-20T14:54:07;2.10;;;1.70;;
17510;SDS011;8873;48.818;9.422;2022-11-20T14:56:35;1.55;;;1.45;;
17510;SDS011;8873;48.818;9.422;2022-11-20T14:59:03;1.85;;;1.75;;
17510;SDS011;8873;48.818;9.422;2022-11-20T15:04:19;2.60;;;2.10;;
17510;SDS011;8873;48.818;9.422;2022-11-20T15:06:50;2.45;;;2.25;;
17510;SDS011;8873;48.818;9.422;2022-11-20T15:09:24;2.60;;;2.40;;
17510;SDS011;8873;48.818;9.422;2022-11-20T15:11:52;7.10;;;5.00;;
17510;SDS011;8873;48.818;9.422;2022-11-20T15:14:20;6.50;;;3.55;;
17510;SDS011;8873;48.818;9.422;2022-11-20T15:16:48;5.88;;;3.95;;
17510;SDS011;8873;48.818;9.422;2022-11-20T15:19:32;6.93;;;4.40;;
17510;SDS011;8873;48.818;9.422;2022-11-20T15:22:01;7.78;;;4.40;;
17510;SDS011;8873;48.818;9.422;2022-11-20T15:24:34;12.75;;;6.18;;
17510;SDS011;8873;48.818;9.422;2022-11-20T15:27:02;15.83;;;7.50;;